Hope, ID (83836)

11:24 AM PDT on August 30, 2014 (GMT -0700)
ITD Trestle Creek ID US | Change Station
CLOSE
Current Station
Personal Weather Station
Location: Hope, ID
Elevation: 2132 ft
Nearby Weather Stations

Elev 2132 ft 48.25 °N, 116.32 °W | Updated 39 minutes ago

Partly Cloudy
Partly Cloudy
71 °F
Feels Like 77 °F
N
2
Wind Variable Wind from SW
Gusts 4.0 mph

Today
High -- | Low -- °F
--% Chance of Precip.
Yesterday
High -- | Low -- °F
Precip. -- in
6:00 AM 7:30 PM
Waxing Crescent, 23% visible
Pressure 29.87 in
Visibility 10.0 miles
Clouds Scattered Clouds 8000 ft
Heat Index 77 °F
Dew Point 46 °F
Humidity 40%
Rainfall 0.00 in
Snow Depth 0 in
UV 5 out of 12
Pollen 7.40 out of 12
Air Quality Not available.
Flu Activity Not available.
METAR KSZT 301815Z AUTO 21005KT 10SM SCT080 20/07 A2987 RMK AO2

More Conditions Fewer Conditions

Pressure 29.87 in
Visibility 10.0 miles
Clouds Scattered Clouds 8000 ft
Heat Index 77 °F
Dew Point 46 °F
Humidity 40%
Rainfall 0.00 in
Snow Depth 0 in
UV 5 out of 12
Pollen 7.40 out of 12
Air Quality Not available.
Flu Activity Not available.
METAR KSZT 301815Z AUTO 21005KT 10SM SCT080 20/07 A2987 RMK AO2

More Conditions Fewer Conditions

10-Day Weather Forecast

Almanac

Astronomy

Aug. 30, 2014 Rise Set
Actual Time 6:00 AM PDT 7:30 PM PDT
Civil Twilight 5:27 AM PDT 8:02 PM PDT
Nautical Twilight 4:47 AM PDT 8:42 PM PDT
Astronomical Twilight 4:04 AM PDT 9:24 PM PDT
Moon 11:17 AM PDT 9:40 PM PDT
Length of Visible Light 14h 35m
Length of Day
13h 30m
Tomorrow will be 3m 23s shorter.
Waxing Crescent, 23% of the Moon is Illuminated
Today
Waxing Crescent
Sep 2
First Quarter
Sep 8
Full
Sep 15
Last Quarter
Sep 24
New

Today's Extremes

State Highs State Lows

Community

WunderPhotos

Upload Photos

1,748,583 photos uploaded!

WunderBlogs® & News

Nearby

Snow Depth

Station Depth Elevation
Mosquito Ridge 0 in 5200 ft
Myrtle Creek 1 in 3520 ft
Sunset 0 in 5540 ft
Humboldt Gulch 2 in 4250 ft
Lookout 0 in 5140 ft

Earthquake Activity

City Distance Mag. Time & Date
No recent earthquake activity has been reported nearby.
Minimum magnitude displayed is 2.5.

Coastal Water Temperatures

Place Temperature
No Stations Reporting

Nearby Weather Stations